createdAt,value
2022-12-24T00:00:18.159Z,1480.6
2022-12-24T00:02:01.862Z,1474.5
2022-12-24T00:03:45.583Z,1469.6
2022-12-24T00:05:29.265Z,1460.2
2022-12-24T00:07:12.973Z,1455.6
2022-12-24T00:08:56.702Z,1453.5
2022-12-24T00:10:40.384Z,1446.2
2022-12-24T00:12:24.102Z,1437.7
2022-12-24T00:14:07.791Z,1428.1
2022-12-24T00:15:51.492Z,1416.9
2022-12-24T00:17:35.187Z,1410.6
2022-12-24T00:19:18.898Z,1403.3
2022-12-24T00:21:02.669Z,1398.7
2022-12-24T00:22:46.297Z,1391.3
2022-12-24T00:24:30.011Z,1381.7
2022-12-24T00:26:13.712Z,1377.3
2022-12-24T00:27:57.408Z,1373.2
2022-12-24T00:29:41.124Z,1366.1
2022-12-24T00:31:24.806Z,1358
2022-12-24T00:33:08.515Z,1354
2022-12-24T00:34:52.218Z,1339.1
2022-12-24T00:36:35.972Z,1332.5
2022-12-24T00:38:19.622Z,1330.7
2022-12-24T00:40:03.314Z,1326.3
2022-12-24T00:41:47.054Z,1320.7
2022-12-24T00:43:30.724Z,1315.3
2022-12-24T00:45:14.426Z,1309.8
2022-12-24T00:46:58.115Z,1306.9
2022-12-24T00:48:41.827Z,1303.1
2022-12-24T00:50:25.689Z,1293.1
2022-12-24T00:52:09.289Z,1284.5
2022-12-24T00:53:52.980Z,1281.3
2022-12-24T00:55:36.642Z,1270.8
2022-12-24T00:57:20.357Z,1266.2
2022-12-24T00:59:04.053Z,1262.5
2022-12-24T01:00:47.787Z,1258.9
2022-12-24T01:02:31.500Z,1253.9
2022-12-24T01:04:15.159Z,1254.8
2022-12-24T01:05:58.862Z,1251.5
2022-12-24T01:07:42.567Z,1247.5
2022-12-24T01:09:26.274Z,1243.6
2022-12-24T01:11:09.967Z,1238.9
2022-12-24T01:12:53.702Z,1236.7
2022-12-24T01:14:37.381Z,1232.3
2022-12-24T01:16:21.093Z,1230.9
2022-12-24T01:18:04.776Z,1224.8
2022-12-24T01:19:48.491Z,1220.9
2022-12-24T01:21:32.193Z,1218
2022-12-24T01:23:15.897Z,1214.2
2022-12-24T01:24:59.584Z,1211.8
2022-12-24T01:26:43.295Z,1203.4
2022-12-24T01:28:27.012Z,1193.1
2022-12-24T01:30:10.734Z,1184.5
2022-12-24T01:31:54.480Z,1180.3
2022-12-24T01:33:38.155Z,1176
2022-12-24T01:35:21.838Z,1175.2
2022-12-24T01:37:05.526Z,1171.5
2022-12-24T01:38:49.249Z,1169.4
2022-12-24T01:40:32.916Z,1164.8
2022-12-24T01:42:16.687Z,1160.7
2022-12-24T01:44:00.340Z,1158.9
2022-12-24T01:45:44.063Z,1156.3
2022-12-24T01:47:27.870Z,1153.1
2022-12-24T01:49:11.434Z,1146.9
2022-12-24T01:50:55.127Z,1145
2022-12-24T01:52:38.865Z,1144.6
2022-12-24T01:54:22.610Z,1145.3
2022-12-24T01:56:06.229Z,1139.5
2022-12-24T01:57:49.936Z,1134.3
2022-12-24T01:59:33.644Z,1128.8
2022-12-24T02:01:17.359Z,1122.4
2022-12-24T02:03:01.071Z,1118.3
2022-12-24T02:04:44.740Z,1100.5
2022-12-24T02:06:28.462Z,1101.1
2022-12-24T02:08:12.160Z,1098.1
2022-12-24T02:09:55.864Z,1096.8
2022-12-24T02:11:39.564Z,1096.2
2022-12-24T02:13:23.324Z,1097.9
2022-12-24T02:15:06.963Z,1096.5
2022-12-24T02:16:50.660Z,1092.1
2022-12-24T02:18:34.352Z,1089.9
2022-12-24T02:20:18.096Z,1085.3
2022-12-24T02:22:01.763Z,1078
2022-12-24T02:23:45.480Z,1073.7
2022-12-24T02:25:29.167Z,1069.9
2022-12-24T02:27:12.866Z,1065.9
2022-12-24T02:28:56.578Z,1059.9
2022-12-24T02:30:40.380Z,1054.1
2022-12-24T02:32:23.963Z,1047.1
2022-12-24T02:34:07.668Z,1041.5
2022-12-24T02:35:51.431Z,1037.4
2022-12-24T02:37:35.097Z,1035.1
2022-12-24T02:39:18.775Z,1035.9
2022-12-24T02:41:02.508Z,1032.3
2022-12-24T02:42:46.251Z,1030.3
2022-12-24T02:44:29.898Z,1030.6
2022-12-24T02:46:13.597Z,1024.8
2022-12-24T02:47:57.377Z,1018.3
2022-12-24T02:49:41.073Z,1015.6
2022-12-24T02:51:24.837Z,1015.5
2022-12-24T02:53:08.449Z,1015.6
2022-12-24T02:54:52.165Z,1012.7
2022-12-24T02:56:35.960Z,1006.9
2022-12-24T02:58:19.559Z,999.9
2022-12-24T03:00:03.268Z,994.7
2022-12-24T03:01:47.047Z,995.4
2022-12-24T03:03:30.752Z,992.6
2022-12-24T03:05:14.369Z,991.5
2022-12-24T03:06:58.068Z,991.1
2022-12-24T03:08:41.792Z,991
2022-12-24T03:10:25.514Z,986
2022-12-24T03:12:09.144Z,983
2022-12-24T03:13:52.838Z,979.8
2022-12-24T03:15:36.596Z,976.4
2022-12-24T03:17:20.299Z,974.9
2022-12-24T03:19:03.956Z,969.1
2022-12-24T03:20:47.638Z,965.8
2022-12-24T03:22:31.325Z,961.6
2022-12-24T03:24:15.023Z,960.9
2022-12-24T03:25:58.744Z,954.4
2022-12-24T03:27:42.432Z,950.5
2022-12-24T03:29:26.130Z,944.5
2022-12-24T03:31:09.845Z,943.2
2022-12-24T03:32:53.580Z,940.2
2022-12-24T03:34:37.242Z,937.6
2022-12-24T03:36:20.939Z,936.5
2022-12-24T03:38:04.643Z,934.5
2022-12-24T03:39:48.355Z,930.5
2022-12-24T03:41:32.079Z,927.8
2022-12-24T03:43:15.753Z,925.1
2022-12-24T03:44:59.542Z,921.5
2022-12-24T03:46:43.232Z,919.4
2022-12-24T03:48:26.926Z,920.5
2022-12-24T03:50:10.625Z,921.2
2022-12-24T03:51:54.282Z,921.1
2022-12-24T03:53:37.984Z,919
2022-12-24T03:55:21.676Z,918.9
2022-12-24T03:57:05.393Z,918.8
2022-12-24T03:58:49.080Z,913.7
2022-12-24T04:00:32.823Z,912.9
2022-12-24T04:02:16.477Z,909.7
2022-12-24T04:04:00.204Z,907.2
2022-12-24T04:05:43.883Z,904.6
2022-12-24T04:07:27.587Z,903.4
2022-12-24T04:09:11.308Z,902.5
2022-12-24T04:10:54.997Z,901.3
2022-12-24T04:12:38.693Z,900.2
2022-12-24T04:14:22.457Z,896.4
2022-12-24T04:16:06.103Z,895.5
2022-12-24T04:17:49.802Z,890.5
2022-12-24T04:19:33.495Z,887.7
2022-12-24T04:21:17.221Z,883.7
2022-12-24T04:23:00.923Z,878.3
2022-12-24T04:24:44.616Z,875.3
2022-12-24T04:26:28.331Z,874
2022-12-24T04:28:12.015Z,875.3
2022-12-24T04:29:55.723Z,873.5
2022-12-24T04:31:39.458Z,868.8
2022-12-24T04:33:23.160Z,868.8
2022-12-24T04:35:06.827Z,864
2022-12-24T04:36:50.567Z,862.7
2022-12-24T04:38:34.249Z,857.9
2022-12-24T04:40:17.945Z,853.3
2022-12-24T04:42:01.656Z,853.2
2022-12-24T04:43:45.379Z,853.7
2022-12-24T04:45:29.094Z,851
2022-12-24T04:47:12.768Z,847.5
2022-12-24T04:48:56.456Z,845.9
2022-12-24T04:50:40.171Z,845.6
2022-12-24T04:52:23.870Z,844.6
2022-12-24T04:54:07.569Z,843.1
2022-12-24T04:55:51.269Z,837.4
2022-12-24T04:57:34.973Z,834.9
2022-12-24T04:59:18.720Z,830
2022-12-24T05:01:02.445Z,826.1
2022-12-24T05:02:46.069Z,823.4
2022-12-24T05:04:29.773Z,819
2022-12-24T05:06:13.452Z,817.9
2022-12-24T05:07:57.161Z,817.9
2022-12-24T05:09:40.866Z,817
2022-12-24T05:11:24.584Z,815.5
2022-12-24T05:13:08.322Z,812.8
2022-12-24T05:14:52.011Z,810.9
2022-12-24T05:16:35.753Z,810.3
2022-12-24T05:18:19.435Z,807.5
2022-12-24T05:20:03.088Z,804.2
2022-12-24T05:21:46.843Z,802.4
2022-12-24T05:23:30.564Z,802.5
2022-12-24T05:25:14.483Z,799.7
2022-12-24T05:26:57.968Z,796.9
2022-12-24T05:28:41.620Z,798.6
2022-12-24T05:30:25.382Z,800.4
2022-12-24T05:32:09.088Z,796.5
2022-12-24T05:33:52.727Z,792.6
2022-12-24T05:35:36.425Z,790.4
2022-12-24T05:37:20.192Z,786.3
2022-12-24T05:39:03.835Z,786.3
2022-12-24T05:40:47.510Z,782.2
2022-12-24T05:42:31.206Z,782.3
2022-12-24T05:44:14.963Z,781.7
2022-12-24T05:45:58.605Z,781.3
2022-12-24T05:47:42.324Z,779.5
2022-12-24T05:49:26.028Z,782.9
2022-12-24T05:51:09.727Z,781.3
2022-12-24T05:52:53.402Z,779.8
2022-12-24T05:54:37.133Z,779.7
2022-12-24T05:56:20.815Z,779.2
2022-12-24T05:58:04.529Z,779.9
2022-12-24T05:59:48.212Z,777.8
2022-12-24T06:01:31.920Z,773.3
2022-12-24T06:03:15.667Z,769.8
2022-12-24T06:04:59.336Z,764.5
2022-12-24T06:06:43.028Z,762.1
2022-12-24T06:08:26.754Z,761
2022-12-24T06:10:10.417Z,758.8
2022-12-24T06:11:54.138Z,753.4
2022-12-24T06:13:37.828Z,751.5
2022-12-24T06:15:21.526Z,748.1
2022-12-24T06:17:05.259Z,746.9
2022-12-24T06:18:48.938Z,746.8
2022-12-24T06:20:32.641Z,747.3
2022-12-24T06:22:16.329Z,747
2022-12-24T06:24:00.061Z,746.4
2022-12-24T06:25:43.745Z,745.7
2022-12-24T06:27:27.427Z,744.8
2022-12-24T06:29:11.136Z,741.8
2022-12-24T06:30:54.841Z,741.9
2022-12-24T06:32:38.585Z,742.2
2022-12-24T06:34:22.227Z,739.1
2022-12-24T06:36:05.952Z,737.8
2022-12-24T06:37:49.646Z,738.6
2022-12-24T06:39:33.363Z,738.3
2022-12-24T06:41:17.111Z,738
2022-12-24T06:43:00.762Z,734.8
2022-12-24T06:44:44.478Z,730.8
2022-12-24T06:46:28.159Z,730.5
2022-12-24T06:48:11.846Z,729.4
2022-12-24T06:49:55.561Z,728.6
2022-12-24T06:51:39.278Z,726.2
2022-12-24T06:53:22.966Z,726.1
2022-12-24T06:55:06.662Z,724.5
2022-12-24T06:56:50.488Z,723.8
2022-12-24T06:58:34.074Z,721.6
2022-12-24T07:00:17.774Z,720
2022-12-24T07:02:01.451Z,718.4
2022-12-24T07:03:45.164Z,718.2
2022-12-24T07:05:28.880Z,716.4
2022-12-24T07:07:12.544Z,714.9
2022-12-24T07:08:56.316Z,713.9
2022-12-24T07:10:39.962Z,709.1
2022-12-24T07:12:23.714Z,707.1
2022-12-24T07:14:07.432Z,708.4
2022-12-24T07:15:51.062Z,705.4
2022-12-24T07:17:34.769Z,703.7
2022-12-24T07:19:18.479Z,703.7
2022-12-24T07:21:02.241Z,703.4
2022-12-24T07:22:45.891Z,704.1
2022-12-24T07:24:29.588Z,705.7
2022-12-24T07:26:13.312Z,706.7
2022-12-24T07:27:56.975Z,704.6
2022-12-24T07:29:40.700Z,701.2
2022-12-24T07:31:24.419Z,699.1
2022-12-24T07:33:08.087Z,696.7
2022-12-24T07:34:51.792Z,699
2022-12-24T07:36:35.554Z,701.2
2022-12-24T07:38:19.196Z,701.9
2022-12-24T07:40:02.866Z,699.5
2022-12-24T07:41:46.582Z,697.2
2022-12-24T07:43:30.314Z,695.4
2022-12-24T07:45:14.002Z,694.7
2022-12-24T07:46:57.754Z,692.8
2022-12-24T07:48:41.502Z,691.1
2022-12-24T07:50:25.091Z,691.4
2022-12-24T07:52:08.814Z,691
2022-12-24T07:53:52.495Z,687.4
2022-12-24T07:55:36.204Z,688.6
2022-12-24T07:57:19.928Z,688.2
2022-12-24T07:59:03.602Z,688.7
2022-12-24T08:00:47.316Z,688
2022-12-24T08:02:31.116Z,688.5
2022-12-24T08:04:14.870Z,691
2022-12-24T08:05:58.524Z,695.8
2022-12-24T08:07:42.179Z,697.2
2022-12-24T08:09:25.943Z,693.3
2022-12-24T08:11:09.552Z,692.2
2022-12-24T08:12:53.346Z,692.6
2022-12-24T08:14:37.144Z,690
2022-12-24T08:16:20.715Z,691.8
2022-12-24T08:18:04.383Z,691.6
2022-12-24T08:19:48.162Z,691.9
2022-12-24T08:21:31.810Z,692.1
2022-12-24T08:23:15.589Z,690
2022-12-24T08:24:59.213Z,688.5
2022-12-24T08:26:42.905Z,688.3
2022-12-24T08:28:26.537Z,685.9
2022-12-24T08:30:10.385Z,685.7
2022-12-24T08:31:53.991Z,684.3
2022-12-24T08:33:37.732Z,684.7
2022-12-24T08:35:21.383Z,683.1
2022-12-24T08:37:05.149Z,683.3
2022-12-24T08:38:48.790Z,684
2022-12-24T08:40:32.540Z,686.8
2022-12-24T08:42:16.143Z,693.2
2022-12-24T08:43:59.978Z,696.7
2022-12-24T08:45:43.661Z,698.1
2022-12-24T08:47:27.261Z,698.8
2022-12-24T08:49:11.009Z,699.5
2022-12-24T08:50:54.705Z,695.8
2022-12-24T08:52:38.430Z,691.7
2022-12-24T08:54:22.072Z,688.1
2022-12-24T08:56:05.880Z,688.5
2022-12-24T08:57:49.592Z,688.6
2022-12-24T08:59:33.179Z,688.4
2022-12-24T09:01:16.868Z,689.2
2022-12-24T09:03:00.611Z,691.3
2022-12-24T09:04:44.314Z,694.4
2022-12-24T09:06:28.098Z,701.8
2022-12-24T09:08:11.833Z,718.4
2022-12-24T09:09:55.448Z,724.6
2022-12-24T09:11:39.077Z,719.6
2022-12-24T09:13:22.777Z,719.7
2022-12-24T09:15:06.469Z,726.2
2022-12-24T09:16:50.174Z,746
2022-12-24T09:18:34.011Z,773.7
2022-12-24T09:22:01.331Z,795.2
2022-12-24T09:23:45.012Z,806.9
2022-12-24T09:25:28.747Z,819.8
2022-12-24T09:27:12.389Z,824.2
2022-12-24T09:28:56.159Z,828.9
2022-12-24T09:30:39.821Z,836.7
2022-12-24T09:32:23.584Z,845.3
2022-12-24T09:34:07.259Z,856.4
2022-12-24T09:35:50.913Z,868.3
2022-12-24T09:37:34.612Z,877.4
2022-12-24T09:39:18.388Z,886.5
2022-12-24T09:41:02.024Z,889.3
2022-12-24T09:42:45.720Z,885.1
2022-12-24T09:44:29.460Z,889.4
2022-12-24T09:46:13.140Z,893.8
2022-12-24T09:47:56.897Z,891.4
2022-12-24T09:49:40.593Z,888.6
2022-12-24T09:51:24.355Z,888.2
2022-12-24T09:53:07.923Z,890.8
2022-12-24T09:54:51.718Z,897.5
2022-12-24T09:56:35.318Z,902.4
2022-12-24T09:58:19.036Z,903.4
2022-12-24T10:00:02.729Z,906.2
2022-12-24T10:01:46.556Z,903.8
2022-12-24T10:03:30.141Z,907.5
2022-12-24T10:05:13.847Z,909.8
2022-12-24T10:06:57.568Z,913
2022-12-24T10:08:41.303Z,910.1
2022-12-24T10:10:24.949Z,906.6
2022-12-24T10:12:08.653Z,907.9
2022-12-24T10:13:52.498Z,908.8
2022-12-24T10:15:36.069Z,912.1
2022-12-24T10:17:19.825Z,913.7
2022-12-24T10:19:03.486Z,915
2022-12-24T10:20:47.141Z,925.2
2022-12-24T10:22:30.842Z,937.6
2022-12-24T10:24:14.562Z,941.6
2022-12-24T10:25:58.266Z,948.7
2022-12-24T10:27:41.945Z,959.1
2022-12-24T10:29:25.744Z,967.8
2022-12-24T10:31:09.407Z,972.6
2022-12-24T10:32:53.143Z,977.9
2022-12-24T10:34:36.772Z,982.8
2022-12-24T10:36:20.563Z,988
2022-12-24T10:38:04.240Z,988.3
2022-12-24T10:39:47.956Z,989.6
2022-12-24T10:41:31.609Z,987.4
2022-12-24T10:43:15.286Z,985.3
2022-12-24T10:44:58.988Z,983
2022-12-24T10:46:42.721Z,979
2022-12-24T10:48:26.397Z,978.3
2022-12-24T10:50:10.106Z,975.4
2022-12-24T10:51:53.901Z,971.9
2022-12-24T10:53:37.582Z,970.6
2022-12-24T10:55:21.212Z,970.1
2022-12-24T10:57:04.979Z,967
2022-12-24T10:58:48.613Z,962.6
2022-12-24T11:00:32.304Z,960.5
2022-12-24T11:02:16.026Z,957.2
2022-12-24T11:03:59.823Z,958.1
2022-12-24T11:05:43.416Z,957.3
2022-12-24T11:07:27.145Z,939.4
2022-12-24T11:09:10.827Z,927.3
2022-12-24T11:10:54.557Z,924.5
2022-12-24T11:12:38.301Z,921.4
2022-12-24T11:14:21.936Z,918.6
2022-12-24T11:16:05.643Z,916.4
2022-12-24T11:17:49.378Z,909.3
2022-12-24T11:19:33.131Z,905.2
2022-12-24T11:21:16.773Z,905.5
2022-12-24T11:23:00.459Z,905.3
2022-12-24T11:24:44.169Z,902.3
2022-12-24T11:26:27.915Z,898.6
2022-12-24T11:28:11.583Z,894.1
2022-12-24T11:29:55.286Z,891.2
2022-12-24T11:31:39.012Z,892.2
2022-12-24T11:33:22.798Z,891.2
2022-12-24T11:35:06.385Z,891.8
2022-12-24T11:36:50.118Z,896.6
2022-12-24T11:38:33.818Z,903.7
2022-12-24T11:40:17.540Z,900.9
2022-12-24T11:42:01.266Z,904.8
2022-12-24T11:43:44.908Z,911.9
2022-12-24T11:45:28.606Z,914.5
2022-12-24T11:47:12.307Z,907.4
2022-12-24T11:48:56.013Z,903
2022-12-24T11:50:39.715Z,901.3
2022-12-24T11:52:23.407Z,898.4
2022-12-24T11:54:07.175Z,899.3
2022-12-24T11:55:50.929Z,901.3
2022-12-24T11:57:34.525Z,897
2022-12-24T11:59:18.216Z,889.7
2022-12-24T12:01:02.006Z,888
2022-12-24T12:02:45.687Z,882.8
2022-12-24T12:04:29.337Z,882
2022-12-24T12:06:13.023Z,881.4
2022-12-24T12:07:56.788Z,882.7
2022-12-24T12:09:40.467Z,885.3
2022-12-24T12:11:24.158Z,886
2022-12-24T12:13:07.871Z,889.6
2022-12-24T12:14:51.544Z,894.7
2022-12-24T12:16:35.245Z,898
2022-12-24T12:18:18.946Z,897.9
2022-12-24T12:20:02.699Z,899.9
2022-12-24T12:21:46.442Z,899.3
2022-12-24T12:23:30.181Z,900.5
2022-12-24T12:25:13.801Z,901
2022-12-24T12:26:57.491Z,901.7
2022-12-24T12:28:41.218Z,902.7
2022-12-24T12:30:24.865Z,903.3
2022-12-24T12:32:08.652Z,903.9
2022-12-24T12:33:52.410Z,906.9
2022-12-24T12:35:36.010Z,909.7
2022-12-24T12:37:19.694Z,911.8
2022-12-24T12:39:03.431Z,913
2022-12-24T12:40:47.094Z,922.6
2022-12-24T12:42:30.799Z,938.4
2022-12-24T12:44:14.547Z,963.2
2022-12-24T12:45:58.232Z,1007.7
2022-12-24T12:47:41.933Z,1042.8
2022-12-24T12:49:25.662Z,1077.5
2022-12-24T12:51:09.366Z,1078.6
2022-12-24T12:52:53.036Z,1087.4
2022-12-24T12:54:36.706Z,1100.8
2022-12-24T12:56:20.413Z,1115.4
2022-12-24T12:58:04.140Z,1129.9
2022-12-24T12:59:47.820Z,1151
2022-12-24T13:01:31.539Z,1160
2022-12-24T13:03:15.275Z,1171.1
2022-12-24T13:04:58.907Z,1190.8
2022-12-24T13:06:42.608Z,1212.8
2022-12-24T13:08:26.381Z,1232.4
2022-12-24T13:10:10.099Z,1243.8
2022-12-24T13:11:53.729Z,1253.6
2022-12-24T13:13:37.425Z,1262.1
2022-12-24T13:15:21.213Z,1279
2022-12-24T13:17:04.841Z,1303.2
2022-12-24T13:18:48.547Z,1304.9
2022-12-24T13:20:32.231Z,1300.8
2022-12-24T13:22:15.959Z,1302.4
2022-12-24T13:23:59.643Z,1311.4
2022-12-24T13:25:43.383Z,1323
2022-12-24T13:27:27.127Z,1335.3
2022-12-24T13:29:10.815Z,1354.4
2022-12-24T13:30:54.452Z,1372.3
2022-12-24T13:32:38.168Z,1398
2022-12-24T13:34:21.873Z,1408.7
2022-12-24T13:36:05.687Z,1413.9
2022-12-24T13:37:49.374Z,1421.2
2022-12-24T13:39:33.045Z,1423.2
2022-12-24T13:41:16.676Z,1418.3
2022-12-24T13:43:00.379Z,1420.2
2022-12-24T13:44:44.140Z,1429.4
2022-12-24T13:46:27.783Z,1445.8
2022-12-24T13:48:11.485Z,1461.7
2022-12-24T13:49:55.194Z,1473.3
2022-12-24T13:51:38.890Z,1478.1
2022-12-24T13:53:22.586Z,1481.5
2022-12-24T13:55:06.339Z,1487.8
2022-12-24T13:56:50.040Z,1482.4
2022-12-24T13:58:33.684Z,1484.4
2022-12-24T14:00:17.449Z,1486.2
2022-12-24T14:02:01.166Z,1485.5
2022-12-24T14:03:44.805Z,1470.8
2022-12-24T14:05:28.506Z,1371.9
2022-12-24T14:07:12.203Z,1342.5
2022-12-24T14:08:56.018Z,1371.2
2022-12-24T14:10:39.712Z,1391.3
2022-12-24T14:12:23.367Z,1397.5
2022-12-24T14:14:07.027Z,1396.9
2022-12-24T14:15:50.903Z,1395.2
2022-12-24T14:17:34.468Z,1388.8
2022-12-24T14:19:18.212Z,1383.9
2022-12-24T14:21:01.816Z,1383.6
2022-12-24T14:22:45.512Z,1389.4
2022-12-24T14:24:29.309Z,1384.5
2022-12-24T14:26:12.947Z,1379.7
2022-12-24T14:27:56.692Z,1374.5
2022-12-24T14:29:40.411Z,1368.3
2022-12-24T14:31:24.079Z,1363.4
2022-12-24T14:33:07.721Z,1357
2022-12-24T14:34:51.540Z,1355.1
2022-12-24T14:36:35.146Z,1354.3
2022-12-24T14:38:18.948Z,1348.3
2022-12-24T14:40:02.657Z,1342
2022-12-24T14:41:46.243Z,1341.7
2022-12-24T14:43:29.954Z,1337
2022-12-24T14:45:13.649Z,1331.6
2022-12-24T14:46:57.441Z,1332.8
2022-12-24T14:48:41.055Z,1328.2
2022-12-24T14:50:24.750Z,1320.5
2022-12-24T14:52:08.572Z,1313.3
2022-12-24T14:53:52.157Z,1307.2
2022-12-24T14:55:35.865Z,1301.6
2022-12-24T14:57:19.618Z,1294.8
2022-12-24T14:59:03.382Z,1290.2
2022-12-24T15:00:46.965Z,1285.2
2022-12-24T15:02:30.709Z,1280
2022-12-24T15:04:14.383Z,1272.6
2022-12-24T15:05:58.159Z,1264.3
2022-12-24T15:07:41.779Z,1258.3
2022-12-24T15:09:25.568Z,1257.1
2022-12-24T15:11:09.183Z,1252.3
2022-12-24T15:12:52.885Z,1247.3
2022-12-24T15:14:36.639Z,1240.5
2022-12-24T15:16:20.347Z,1218.7
2022-12-24T15:18:03.949Z,1203.4
2022-12-24T15:19:47.651Z,1204.2
2022-12-24T15:21:31.416Z,1209.1
2022-12-24T15:23:15.056Z,1213.9
2022-12-24T15:24:58.763Z,1216.2
2022-12-24T15:26:42.464Z,1218.9
2022-12-24T15:28:26.166Z,1225.2
2022-12-24T15:30:09.871Z,1229.8
2022-12-24T15:31:53.570Z,1231
2022-12-24T15:33:37.299Z,1232.8
2022-12-24T15:35:20.978Z,1242.7
2022-12-24T15:37:04.686Z,1251.2
2022-12-24T15:38:48.365Z,1256.2
2022-12-24T15:40:32.080Z,1266.9
2022-12-24T15:42:15.771Z,1281.1
2022-12-24T15:43:59.473Z,1288.7
2022-12-24T15:45:43.342Z,1291.7
2022-12-24T15:47:26.870Z,1296
2022-12-24T15:49:10.609Z,1294.8
2022-12-24T15:50:54.267Z,1292.9
2022-12-24T15:52:37.976Z,1294.4
2022-12-24T15:54:21.765Z,1293.9
2022-12-24T15:56:05.396Z,1291.4
2022-12-24T15:57:49.105Z,1289.2
2022-12-24T15:59:32.895Z,1285.9
2022-12-24T16:01:16.622Z,1283.3
2022-12-24T16:03:00.180Z,1277.1
2022-12-24T16:04:43.951Z,1269.2
2022-12-24T16:06:27.596Z,1263
2022-12-24T16:08:11.324Z,1258.9
2022-12-24T16:09:54.991Z,1254.2
2022-12-24T16:11:38.761Z,1254.6
2022-12-24T16:13:22.441Z,1249.2
2022-12-24T16:15:06.124Z,1246.3
2022-12-24T16:16:49.878Z,1244
2022-12-24T16:18:33.528Z,1242.8
2022-12-24T16:20:17.361Z,1239.6
2022-12-24T16:22:01.048Z,1231.6
2022-12-24T16:23:44.623Z,1226.7
2022-12-24T16:25:28.323Z,1224
2022-12-24T16:27:12.036Z,1222.7
2022-12-24T16:28:55.755Z,1219.7
2022-12-24T16:30:39.472Z,1217.1
2022-12-24T16:32:23.096Z,1213.4
2022-12-24T16:34:06.804Z,1207
2022-12-24T16:35:50.561Z,1203.7
2022-12-24T16:37:34.214Z,1199.6
2022-12-24T16:39:17.917Z,1196
2022-12-24T16:41:01.622Z,1196.1
2022-12-24T16:42:45.391Z,1198.2
2022-12-24T16:44:29.036Z,1191.8
2022-12-24T16:46:12.793Z,1186.3
2022-12-24T16:47:56.520Z,1181.9
2022-12-24T16:49:40.195Z,1181.9
2022-12-24T16:51:23.927Z,1180.5
2022-12-24T16:53:07.540Z,1176.4
2022-12-24T16:54:51.247Z,1172.9
2022-12-24T16:56:34.933Z,1167.2
2022-12-24T16:58:18.656Z,1162.1
2022-12-24T17:00:02.464Z,1163.5
2022-12-24T17:01:46.065Z,1161.5
2022-12-24T17:03:29.771Z,1157.1
2022-12-24T17:05:13.462Z,1150.6
2022-12-24T17:06:57.158Z,1144.5
2022-12-24T17:08:40.926Z,1139.4
2022-12-24T17:10:24.580Z,1133.9
2022-12-24T17:12:08.290Z,1124.5
2022-12-24T17:13:51.976Z,1119.9
2022-12-24T17:15:35.690Z,1116.2
2022-12-24T17:17:19.367Z,1114
2022-12-24T17:19:03.064Z,1110.9
2022-12-24T17:20:46.773Z,1104.6
2022-12-24T17:22:30.558Z,1101.4
2022-12-24T17:24:14.159Z,1096.5
2022-12-24T17:25:57.918Z,1094
2022-12-24T17:27:41.608Z,1089.1
2022-12-24T17:29:25.279Z,1086.6
2022-12-24T17:31:08.968Z,1083.5
2022-12-24T17:32:52.754Z,1075.8
2022-12-24T17:34:36.392Z,1075.5
2022-12-24T17:36:20.082Z,1074.1
2022-12-24T17:38:03.779Z,1067.5
2022-12-24T17:39:47.477Z,1062.3
2022-12-24T17:41:31.192Z,1058.8
2022-12-24T17:43:14.892Z,1056.8
2022-12-24T17:44:58.603Z,1054.7
2022-12-24T17:46:42.290Z,1052.5
2022-12-24T17:48:26.002Z,1051.6
2022-12-24T17:50:09.708Z,1047.9
2022-12-24T17:51:53.471Z,1042.3
2022-12-24T17:53:37.119Z,1040.3
2022-12-24T17:55:21.020Z,1036.3
2022-12-24T17:57:04.571Z,1032.3
2022-12-24T17:58:48.318Z,1025.1
2022-12-24T18:00:31.915Z,1019.2
2022-12-24T18:02:15.710Z,1016.4
2022-12-24T18:03:59.332Z,1013.1
2022-12-24T18:05:43.150Z,1011.4
2022-12-24T18:07:26.781Z,1003.4
2022-12-24T18:09:10.537Z,1000.6
2022-12-24T18:10:54.150Z,1000.8
2022-12-24T18:12:37.985Z,999.4
2022-12-24T18:14:21.555Z,996.3
2022-12-24T18:16:05.252Z,997.1
2022-12-24T18:17:49.022Z,996.5
2022-12-24T18:19:32.695Z,994
2022-12-24T18:21:16.371Z,994.2
2022-12-24T18:23:00.070Z,989.6
2022-12-24T18:24:43.806Z,986.9
2022-12-24T18:26:27.502Z,981.2
2022-12-24T18:28:11.179Z,977.8
2022-12-24T18:29:54.870Z,974.2
2022-12-24T18:31:38.572Z,971.3
2022-12-24T18:33:22.269Z,969.2
2022-12-24T18:35:05.972Z,968
2022-12-24T18:36:49.672Z,964.4
2022-12-24T18:38:33.369Z,960.8
2022-12-24T18:40:17.081Z,959.2
2022-12-24T18:42:00.776Z,955.3
2022-12-24T18:43:44.522Z,952.1
2022-12-24T18:45:28.253Z,949.4
2022-12-24T18:47:11.891Z,944.9
2022-12-24T18:48:55.627Z,941.3
2022-12-24T18:50:39.300Z,938.8
2022-12-24T18:52:23.021Z,936.7
2022-12-24T18:54:06.790Z,935.7
2022-12-24T18:55:50.464Z,931.4
2022-12-24T18:57:34.202Z,926.9
2022-12-24T18:59:17.790Z,922.4
2022-12-24T19:01:01.569Z,916.5
2022-12-24T19:02:45.211Z,911.3
2022-12-24T19:04:29.017Z,909.5
2022-12-24T19:07:56.323Z,907.5
2022-12-24T19:09:40.174Z,909
2022-12-24T19:11:23.716Z,908.3
2022-12-24T19:13:07.497Z,906.3
2022-12-24T19:14:51.263Z,901.2
2022-12-24T19:16:34.907Z,896.3
2022-12-24T19:18:18.558Z,892.9
2022-12-24T19:20:02.238Z,892.2
2022-12-24T19:21:46.068Z,889.8
2022-12-24T19:23:29.727Z,886.5
2022-12-24T19:25:13.393Z,883.5
2022-12-24T19:26:57.067Z,881.4
2022-12-24T19:28:40.809Z,880
2022-12-24T19:30:24.554Z,879.6
2022-12-24T19:32:08.164Z,875.7
2022-12-24T19:33:51.899Z,875.3
2022-12-24T19:35:35.577Z,872.7
2022-12-24T19:37:19.334Z,870.1
2022-12-24T19:39:03.098Z,866.5
2022-12-24T19:40:46.666Z,861.9
2022-12-24T19:42:30.437Z,862.2
2022-12-24T19:44:14.077Z,858.6
2022-12-24T19:45:57.765Z,855.4
2022-12-24T19:47:41.547Z,852.6
2022-12-24T19:49:25.255Z,850.5
2022-12-24T19:51:09.037Z,848.8
2022-12-24T19:52:52.656Z,848.2
2022-12-24T19:54:36.288Z,847.4
2022-12-24T19:56:20.070Z,844.6
2022-12-24T19:58:03.763Z,839.9
2022-12-24T19:59:47.407Z,837.5
2022-12-24T20:01:31.104Z,833.4
2022-12-24T20:03:14.809Z,828.1
2022-12-24T20:04:58.620Z,827.2
2022-12-24T20:06:42.266Z,827.9
2022-12-24T20:08:25.923Z,827.5
2022-12-24T20:10:09.629Z,824.9
2022-12-24T20:11:53.448Z,823.5
2022-12-24T20:13:37.068Z,821.3
2022-12-24T20:15:20.753Z,819.1
2022-12-24T20:17:04.479Z,812.9
2022-12-24T20:18:48.126Z,810.5
2022-12-24T20:20:31.859Z,812.3
2022-12-24T20:22:15.524Z,809.8
2022-12-24T20:23:59.215Z,805.6
2022-12-24T20:25:42.910Z,804.5
2022-12-24T20:27:26.660Z,805.4
2022-12-24T20:29:10.392Z,804.9
2022-12-24T20:30:54.098Z,802
2022-12-24T20:32:37.716Z,797.7
2022-12-24T20:34:21.523Z,795.3
2022-12-24T20:36:05.189Z,795.1
2022-12-24T20:37:48.877Z,791.1
2022-12-24T20:39:32.530Z,786.3
2022-12-24T20:41:16.254Z,779.7
2022-12-24T20:43:00.013Z,775.6
2022-12-24T20:44:43.639Z,776.7
2022-12-24T20:46:27.362Z,778
2022-12-24T20:48:11.058Z,778.8
2022-12-24T20:49:54.842Z,776.9
2022-12-24T20:51:38.439Z,774.4
2022-12-24T20:53:22.159Z,773.7
2022-12-24T20:55:05.855Z,772.5
2022-12-24T20:56:49.560Z,771.1
2022-12-24T20:58:33.241Z,771.1
2022-12-24T21:00:16.952Z,769
2022-12-24T21:02:00.660Z,768.3
2022-12-24T21:03:44.405Z,767.8
2022-12-24T21:05:28.036Z,764.5
2022-12-24T21:07:11.779Z,761.4
2022-12-24T21:08:55.491Z,758.4
2022-12-24T21:10:39.144Z,758.8
2022-12-24T21:12:22.949Z,759.1
2022-12-24T21:14:06.598Z,757.8
2022-12-24T21:15:50.296Z,755.2
2022-12-24T21:17:34.011Z,751
2022-12-24T21:19:17.696Z,748.7
2022-12-24T21:21:01.353Z,745.2
2022-12-24T21:22:45.066Z,741.8
2022-12-24T21:24:28.778Z,743.3
2022-12-24T21:26:12.444Z,740.6
2022-12-24T21:27:56.169Z,739.2
2022-12-24T21:29:39.879Z,744.9
2022-12-24T21:31:23.656Z,748.9
2022-12-24T21:33:07.263Z,753.4
2022-12-24T21:34:50.971Z,763.5
2022-12-24T21:36:34.672Z,769.9
2022-12-24T21:38:18.360Z,782.1
2022-12-24T21:40:02.080Z,793.3
2022-12-24T21:41:45.853Z,805.4
2022-12-24T21:43:29.473Z,817.5
2022-12-24T21:45:13.182Z,829.8
2022-12-24T21:46:56.877Z,841.6
2022-12-24T21:48:40.670Z,869.1
2022-12-24T21:50:24.284Z,902.3
2022-12-24T21:52:08.016Z,918.6
2022-12-24T21:53:51.693Z,935.1
2022-12-24T21:55:35.409Z,953.7
2022-12-24T21:57:19.137Z,978.5
2022-12-24T21:59:02.821Z,1032.1
2022-12-24T22:00:46.516Z,1026.3
2022-12-24T22:02:30.305Z,1024.9
2022-12-24T22:04:13.911Z,1028.8
2022-12-24T22:05:57.678Z,1036.3
2022-12-24T22:07:41.401Z,1059.2
2022-12-24T22:09:25.100Z,1066.5